Time;durP1;ratioP1;P1;durP2;ratioP2;P2;SDS_P1;SDS_P2;PMS_P1;PMS_P2;Temp;Humidity;BMP_temperature;BMP_pressure;BME280_temperature;BME280_humidity;BME280_pressure;Samples;Min_cycle;Max_cycle;Signal;HPM_P1;HPM_P2
2021/03/09 00:00:21;;;;;;;6.00;3.87;;;;;;;4.88;100.00;96419.78;5134630;27;20197;-90
2021/03/09 00:02:47;;;;;;;4.43;4.00;;;;;;;4.86;100.00;96419.94;5134522;27;20202;-89
2021/03/09 00:05:14;;;;;;;4.30;3.63;;;;;;;4.94;100.00;96414.94;5134794;27;20198;-90
2021/03/09 00:07:43;;;;;;;9.27;3.70;;;;;;;4.97;100.00;96414.69;5134213;27;20663;-89
2021/03/09 00:10:12;;;;;;;6.60;4.20;;;;;;;5.06;100.00;96412.31;5134413;27;20622;-89
2021/03/09 00:12:39;;;;;;;5.53;3.90;;;;;;;4.92;100.00;96416.84;5134502;27;20772;-90
2021/03/09 00:15:07;;;;;;;4.30;3.90;;;;;;;4.85;100.00;96418.28;5134256;27;20718;-89
2021/03/09 00:17:37;;;;;;;6.37;4.13;;;;;;;4.85;100.00;96415.69;5134478;27;20239;-89
2021/03/09 00:20:05;;;;;;;4.70;3.57;;;;;;;4.81;100.00;96416.00;5134135;27;20187;-90
2021/03/09 00:22:32;;;;;;;5.13;4.20;;;;;;;4.92;100.00;96414.25;5134191;27;20191;-90
2021/03/09 00:24:59;;;;;;;5.50;4.10;;;;;;;4.87;100.00;96416.38;5134512;27;20548;-90
2021/03/09 00:27:26;;;;;;;4.60;4.13;;;;;;;5.01;100.00;96408.28;5134235;27;20209;-89
2021/03/09 00:29:53;;;;;;;5.70;4.27;;;;;;;4.85;100.00;96404.41;5133864;27;20703;-89
2021/03/09 00:32:20;;;;;;;7.37;4.60;;;;;;;4.82;100.00;96402.88;5134261;27;20191;-90
2021/03/09 00:34:47;;;;;;;5.47;3.70;;;;;;;4.89;100.00;96398.03;5134103;27;20195;-89
2021/03/09 00:37:14;;;;;;;6.27;4.20;;;;;;;4.86;100.00;96406.09;5134392;27;20202;-90
2021/03/09 00:39:40;;;;;;;5.10;4.10;;;;;;;4.79;100.00;96399.69;5134112;27;20190;-91
2021/03/09 00:42:08;;;;;;;6.27;3.90;;;;;;;4.83;100.00;96396.72;5134100;27;20350;-90
2021/03/09 00:44:36;;;;;;;5.00;4.13;;;;;;;4.85;100.00;96391.38;5133942;27;20685;-90
2021/03/09 00:47:03;;;;;;;6.93;3.80;;;;;;;5.00;100.00;96391.03;5133820;27;20673;-91
2021/03/09 00:49:30;;;;;;;5.23;4.00;;;;;;;4.96;100.00;96384.41;5133571;27;20226;-90
2021/03/09 00:51:57;;;;;;;5.80;4.03;;;;;;;5.05;100.00;96385.44;5134011;28;20679;-90
2021/03/09 00:54:24;;;;;;;5.97;4.33;;;;;;;4.96;100.00;96386.19;5134037;28;20246;-90
2021/03/09 00:56:51;;;;;;;4.93;4.10;;;;;;;4.83;100.00;96381.09;5133648;28;20679;-90
2021/03/09 00:59:18;;;;;;;7.13;4.80;;;;;;;4.78;100.00;96385.84;5133986;28;20675;-89
2021/03/09 01:01:46;;;;;;;6.83;5.37;;;;;;;4.72;100.00;96389.75;5134014;28;20271;-90
2021/03/09 01:04:13;;;;;;;6.40;4.50;;;;;;;4.45;100.00;96392.72;5134591;27;20197;-89
2021/03/09 01:06:39;;;;;;;50.80;26.50;;;;;;;4.00;100.00;96389.22;5138119;27;20205;-89
2021/03/09 01:09:06;;;;;;;40.50;23.00;;;;;;;3.67;100.00;96395.16;5137820;27;20190;-90
2021/03/09 01:11:33;;;;;;;36.07;20.77;;;;;;;3.46;100.00;96374.97;5137698;27;20200;-90
2021/03/09 01:14:00;;;;;;;28.63;15.87;;;;;;;3.52;100.00;96386.72;5137949;27;20194;-90
2021/03/09 01:16:27;;;;;;;15.80;8.90;;;;;;;3.56;100.00;96393.34;5137647;27;20666;-89
2021/03/09 01:18:55;;;;;;;6.83;5.33;;;;;;;3.66;100.00;96393.50;5137629;27;20202;-89
2021/03/09 01:21:22;;;;;;;6.73;4.53;;;;;;;3.56;100.00;96393.34;5137614;27;20683;-90
2021/03/09 01:23:48;;;;;;;6.57;4.33;;;;;;;3.72;100.00;96396.47;5137838;27;20229;-89
2021/03/09 01:26:15;;;;;;;4.07;3.67;;;;;;;3.90;100.00;96393.44;5137827;27;20190;-89
2021/03/09 01:28:42;;;;;;;8.63;4.43;;;;;;;3.78;100.00;96390.84;5137415;27;20643;-90
2021/03/09 01:31:09;;;;;;;6.90;4.07;;;;;;;3.72;100.00;96393.88;5137827;27;20596;-90
2021/03/09 01:33:36;;;;;;;9.67;7.63;;;;;;;3.26;100.00;96389.44;5137669;27;20285;-89
2021/03/09 01:36:05;;;;;;;9.57;6.43;;;;;;;3.13;100.00;96390.44;5137453;27;20269;-89
2021/03/09 01:38:32;;;;;;;8.90;5.73;;;;;;;3.02;100.00;96391.19;5137336;27;20205;-90
2021/03/09 01:40:58;;;;;;;11.03;6.90;;;;;;;3.06;100.00;96384.84;5137336;27;20339;-89
2021/03/09 01:43:25;;;;;;;7.50;5.37;;;;;;;3.13;100.00;96386.06;5137259;27;20237;-89
2021/03/09 01:45:52;;;;;;;12.40;6.33;;;;;;;3.37;100.00;96385.25;5137511;27;20335;-90
2021/03/09 01:48:21;;;;;;;6.97;5.40;;;;;;;3.35;100.00;96387.94;5137088;27;20313;-90
2021/03/09 01:50:50;;;;;;;9.73;6.63;;;;;;;3.08;100.00;96388.16;5137033;27;20326;-90
2021/03/09 01:53:19;;;;;;;11.10;7.73;;;;;;;2.74;100.00;96374.16;5136944;27;20675;-89
2021/03/09 01:55:46;;;;;;;7.50;4.43;;;;;;;2.59;100.00;96376.84;5136944;27;20241;-92
2021/03/09 01:58:13;;;;;;;5.13;3.70;;;;;;;2.67;100.00;96378.09;5136677;27;20195;-92
2021/03/09 02:00:40;;;;;;;4.90;3.67;;;;;;;2.81;100.00;96377.97;5137470;27;20267;-91
2021/03/09 02:03:08;;;;;;;5.60;4.43;;;;;;;3.01;100.00;96379.13;5137091;27;20241;-91
2021/03/09 02:05:35;;;;;;;7.53;5.03;;;;;;;2.98;100.00;96379.34;5137179;27;20621;-92
2021/03/09 02:08:02;;;;;;;9.37;6.67;;;;;;;2.89;100.00;96375.66;5136713;27;20190;-92
2021/03/09 02:10:30;;;;;;;8.13;5.00;;;;;;;3.15;100.00;96380.75;5136670;27;20229;-91
2021/03/09 02:13:08;;;;;;;6.37;4.60;;;;;;;3.21;100.00;96383.75;5136802;27;20183;-90
2021/03/09 02:15:39;;;;;;;4.60;4.00;;;;;;;3.39;100.00;96376.38;5136456;27;20221;-90
2021/03/09 02:18:18;;;;;;;4.07;3.47;;;;;;;3.46;100.00;96374.16;5136671;27;20623;-91
2021/03/09 02:21:30;;;;;;;4.63;3.90;;;;;;;3.68;100.00;96370.84;5136568;27;20240;-91
2021/03/09 02:24:33;;;;;;;4.77;3.67;;;;;;;3.92;100.00;96374.19;5126512;27;20198;-92
2021/03/09 02:27:43;;;;;;;5.57;3.80;;;;;;;3.90;100.00;96375.25;5275979;22;20230;-91
2021/03/09 02:30:16;;;;;;;5.67;3.40;;;;;;;3.84;100.00;96384.31;5034924;28;20320;-92
2021/03/09 02:32:47;;;;;;;8.97;4.23;;;;;;;3.90;100.00;96386.47;5035805;28;20187;-91
2021/03/09 02:35:19;;;;;;;4.30;3.50;;;;;;;3.89;100.00;96384.00;5035534;28;20646;-92
2021/03/09 02:37:49;;;;;;;4.97;3.77;;;;;;;3.94;100.00;96380.09;5035165;28;20199;-91
2021/03/09 02:40:17;;;;;;;4.73;3.20;;;;;;;4.04;100.00;96386.28;5035086;28;20234;-92
2021/03/09 02:42:50;;;;;;;4.80;3.97;;;;;;;3.96;100.00;96374.81;5035333;28;20699;-91
2021/03/09 02:45:21;;;;;;;6.07;3.57;;;;;;;3.99;100.00;96391.00;5035183;28;20206;-92
2021/03/09 02:47:50;;;;;;;8.07;3.80;;;;;;;3.97;100.00;96392.88;5034907;28;20187;-91
2021/03/09 02:50:21;;;;;;;7.27;3.77;;;;;;;3.97;100.00;96392.06;5035128;28;20626;-92
2021/03/09 02:52:51;;;;;;;4.70;4.03;;;;;;;3.92;100.00;96394.19;5034915;28;20194;-91
2021/03/09 02:55:21;;;;;;;4.97;3.90;;;;;;;3.99;100.00;96400.59;5035103;28;20183;-92
2021/03/09 02:57:50;;;;;;;4.63;4.17;;;;;;;3.96;100.00;96399.03;5034822;28;20290;-91
2021/03/09 03:00:20;;;;;;;10.53;4.23;;;;;;;3.92;100.00;96399.38;5034894;28;20201;-91
2021/03/09 03:02:48;;;;;;;4.93;4.43;;;;;;;3.91;100.00;96401.13;5034796;28;20195;-90
2021/03/09 03:05:18;;;;;;;4.87;4.30;;;;;;;3.76;100.00;96408.31;5034687;28;20242;-92
2021/03/09 03:07:45;;;;;;;8.23;4.80;;;;;;;3.79;100.00;96410.69;5034524;28;20286;-92
2021/03/09 03:10:16;;;;;;;6.67;4.17;;;;;;;3.73;100.00;96411.13;5034459;28;20226;-92
2021/03/09 03:12:45;;;;;;;4.10;3.70;;;;;;;3.76;100.00;96413.50;5035054;28;20631;-93
2021/03/09 03:15:13;;;;;;;9.03;3.73;;;;;;;3.83;100.00;96413.88;5034498;28;20199;-92
2021/03/09 03:17:45;;;;;;;5.07;3.80;;;;;;;3.83;100.00;96413.88;5034456;28;20187;-91
2021/03/09 03:20:16;;;;;;;3.90;3.53;;;;;;;3.81;100.00;96420.97;5034770;28;20187;-91
2021/03/09 03:22:44;;;;;;;5.37;3.87;;;;;;;3.61;100.00;96416.41;5034523;28;20667;-91
2021/03/09 03:25:13;;;;;;;9.47;4.33;;;;;;;3.70;100.00;96419.16;5034418;28;20203;-92
2021/03/09 03:27:43;;;;;;;6.00;4.37;;;;;;;3.70;100.00;96420.91;5033374;28;20242;-92
2021/03/09 03:30:12;;;;;;;6.67;4.33;;;;;;;3.74;100.00;96430.16;5034373;28;20222;-92
2021/03/09 03:32:39;;;;;;;5.27;4.23;;;;;;;3.79;100.00;96431.47;5034041;28;20195;-91
2021/03/09 03:35:09;;;;;;;9.63;4.80;;;;;;;3.81;100.00;96436.59;5033893;28;20194;-91
2021/03/09 03:37:37;;;;;;;5.47;4.80;;;;;;;3.67;100.00;96436.72;5034246;28;20191;-91
2021/03/09 03:40:07;;;;;;;7.83;5.03;;;;;;;3.80;100.00;96438.31;5034221;28;20201;-91
2021/03/09 03:42:34;;;;;;;6.20;4.73;;;;;;;3.46;100.00;96445.16;5033879;28;20208;-92
2021/03/09 03:45:01;;;;;;;10.13;8.20;;;;;;;3.22;100.00;96444.31;5033847;28;20687;-91
2021/03/09 03:47:28;;;;;;;10.57;6.67;;;;;;;3.02;100.00;96445.72;5033832;28;20191;-91
2021/03/09 03:49:55;;;;;;;8.20;5.30;;;;;;;2.91;100.00;96440.44;5033904;28;20226;-91
2021/03/09 03:52:35;;;;;;;6.83;4.47;;;;;;;2.73;100.00;96447.75;5033739;28;20308;-92
2021/03/09 03:55:13;;;;;;;7.03;4.70;;;;;;;2.79;100.00;96436.94;5033892;28;20186;-91
2021/03/09 03:57:47;;;;;;;7.07;4.80;;;;;;;2.81;100.00;96438.50;5033952;28;20186;-91
2021/03/09 04:00:16;;;;;;;7.80;6.07;;;;;;;3.08;100.00;96442.69;5033612;28;20187;-90
2021/03/09 04:02:45;;;;;;;8.37;5.10;;;;;;;3.12;100.00;96448.47;5033798;28;20199;-90
2021/03/09 04:05:13;;;;;;;9.13;5.03;;;;;;;3.23;100.00;96439.00;5033403;28;20195;-90
2021/03/09 04:07:42;;;;;;;8.17;6.20;;;;;;;3.26;100.00;96438.81;5033240;28;20195;-90
2021/03/09 04:10:09;;;;;;;8.83;5.50;;;;;;;3.33;100.00;96444.38;5033483;28;20222;-90
2021/03/09 04:12:36;;;;;;;7.67;5.07;;;;;;;3.34;100.00;96443.44;5033620;28;20285;-91
2021/03/09 04:15:06;;;;;;;12.43;6.60;;;;;;;3.28;100.00;96449.91;5033353;28;20222;-89
2021/03/09 04:17:34;;;;;;;6.23;4.80;;;;;;;3.21;100.00;96451.28;5029476;28;20206;-88
2021/03/09 04:20:04;;;;;;;8.13;5.80;;;;;;;3.29;100.00;96441.19;5032260;28;20198;-88
2021/03/09 04:22:33;;;;;;;7.93;6.10;;;;;;;3.36;100.00;96451.97;5032860;28;20238;-86
2021/03/09 04:25:01;;;;;;;6.17;5.30;;;;;;;3.06;100.00;96450.59;5032545;28;20726;-87
2021/03/09 04:27:28;;;;;;;8.53;6.30;;;;;;;3.21;100.00;96450.44;5031375;28;20241;-88
2021/03/09 04:29:57;;;;;;;10.50;7.90;;;;;;;3.22;100.00;96459.88;5031744;28;20255;-88
2021/03/09 04:32:25;;;;;;;10.30;6.50;;;;;;;3.23;100.00;96448.59;5032950;28;20742;-92
2021/03/09 04:34:53;;;;;;;9.10;5.87;;;;;;;3.05;100.00;96454.13;5032579;28;20202;-91
2021/03/09 04:37:20;;;;;;;7.40;5.70;;;;;;;3.10;100.00;96451.22;5032965;28;20285;-92
2021/03/09 04:42:37;;;;;;;9.80;6.23;;;;;;;3.16;100.00;96457.75;5040692;28;20191;-91
2021/03/09 04:45:05;;;;;;;10.23;7.70;;;;;;;3.16;100.00;96462.94;5033553;28;20241;-91
2021/03/09 04:47:33;;;;;;;10.23;6.60;;;;;;;3.15;100.00;96459.50;5032825;28;20206;-90
2021/03/09 04:50:01;;;;;;;8.10;6.17;;;;;;;3.12;100.00;96461.47;5032749;28;20218;-90
2021/03/09 04:52:29;;;;;;;12.70;9.57;;;;;;;3.17;100.00;96464.59;5032954;28;20727;-91
2021/03/09 04:54:58;;;;;;;8.90;6.00;;;;;;;3.27;100.00;96469.03;5032737;28;20187;-91
2021/03/09 04:57:36;;;;;;;8.53;6.03;;;;;;;3.34;100.00;96469.41;5033675;28;20206;-91
2021/03/09 05:00:06;;;;;;;7.30;5.63;;;;;;;3.39;100.00;96467.31;5033369;28;20190;-92
2021/03/09 05:02:33;;;;;;;10.03;6.03;;;;;;;3.41;100.00;96470.66;5033489;28;20202;-92
2021/03/09 05:05:00;;;;;;;8.90;5.70;;;;;;;3.50;100.00;96466.56;5033692;28;20198;-91
2021/03/09 05:07:27;;;;;;;8.63;5.37;;;;;;;3.38;100.00;96468.25;5033307;28;20229;-91
2021/03/09 05:09:54;;;;;;;5.90;5.03;;;;;;;3.26;100.00;96469.16;5034789;28;20584;-90
2021/03/09 05:12:21;;;;;;;7.10;5.07;;;;;;;3.21;100.00;96476.41;5033195;28;20274;-91
2021/03/09 05:14:48;;;;;;;11.23;9.10;;;;;;;3.40;100.00;96469.00;5034988;28;20203;-91
2021/03/09 05:17:16;;;;;;;14.83;9.03;;;;;;;3.37;100.00;96465.78;5034645;28;20246;-92
2021/03/09 05:19:43;;;;;;;9.63;6.90;;;;;;;3.49;100.00;96464.88;5033665;28;20198;-92
2021/03/09 05:22:09;;;;;;;7.17;5.80;;;;;;;3.44;100.00;96461.81;5033479;28;20198;-91
2021/03/09 05:24:36;;;;;;;7.40;5.53;;;;;;;3.48;100.00;96463.25;5033241;28;20285;-91
2021/03/09 05:27:05;;;;;;;8.57;5.73;;;;;;;3.43;100.00;96463.59;5032139;28;20242;-91
2021/03/09 05:29:32;;;;;;;8.63;6.27;;;;;;;3.50;100.00;96462.19;5033241;28;20199;-90
2021/03/09 05:31:58;;;;;;;13.23;6.40;;;;;;;3.50;100.00;96466.56;5033032;28;20233;-91
2021/03/09 05:34:26;;;;;;;7.97;5.10;;;;;;;3.66;100.00;96471.47;5032973;28;20210;-92
2021/03/09 05:36:53;;;;;;;6.43;5.67;;;;;;;3.75;100.00;96478.63;5032756;28;20234;-91
2021/03/09 05:39:20;;;;;;;9.33;5.83;;;;;;;3.90;100.00;96477.50;5032505;28;20199;-91
2021/03/09 05:41:47;;;;;;;7.50;5.53;;;;;;;3.91;100.00;96475.72;5032458;28;20235;-90
2021/03/09 05:44:14;;;;;;;11.80;6.73;;;;;;;3.89;100.00;96469.81;5033017;28;20205;-91
2021/03/09 05:46:41;;;;;;;9.13;7.07;;;;;;;3.86;100.00;96473.47;5032742;28;20226;-91
2021/03/09 05:49:09;;;;;;;12.63;7.83;;;;;;;3.96;100.00;96473.63;5032593;28;20199;-91
2021/03/09 05:51:37;;;;;;;9.60;8.10;;;;;;;4.13;100.00;96478.41;5033706;28;20226;-91
2021/03/09 05:54:03;;;;;;;14.23;10.53;;;;;;;3.96;100.00;96481.41;5036246;28;20285;-91
2021/03/09 05:56:30;;;;;;;11.53;8.37;;;;;;;4.07;100.00;96485.84;5036210;28;20723;-91
2021/03/09 05:58:57;;;;;;;12.00;8.13;;;;;;;4.18;100.00;96483.25;5036146;28;20633;-91
2021/03/09 06:01:24;;;;;;;14.87;8.57;;;;;;;4.03;100.00;96483.44;5035983;28;20230;-91
2021/03/09 06:03:51;;;;;;;12.53;8.43;;;;;;;4.00;100.00;96495.84;5035953;28;20716;-91
2021/03/09 06:06:18;;;;;;;8.80;6.67;;;;;;;4.00;100.00;96507.09;5036072;28;20643;-91
2021/03/09 06:08:46;;;;;;;9.60;7.43;;;;;;;4.04;100.00;96507.69;5035620;28;20206;-91
2021/03/09 06:11:14;;;;;;;8.73;7.13;;;;;;;4.22;100.00;96508.09;5035847;28;20717;-91
2021/03/09 06:13:41;;;;;;;11.60;8.93;;;;;;;3.89;100.00;96516.63;5035932;28;20202;-91
2021/03/09 06:16:08;;;;;;;11.70;7.10;;;;;;;3.87;100.00;96515.88;5035528;28;20202;-90
2021/03/09 06:18:35;;;;;;;10.70;7.57;;;;;;;4.01;100.00;96516.53;5035744;28;20566;-91
2021/03/09 06:21:09;;;;;;;9.63;6.63;;;;;;;4.28;100.00;96520.66;5035542;28;20650;-91
2021/03/09 06:23:36;;;;;;;7.80;6.50;;;;;;;4.59;100.00;96507.97;5035540;28;20186;-90
2021/03/09 06:26:04;;;;;;;9.67;6.33;;;;;;;4.73;100.00;96505.97;5035189;28;20322;-91
2021/03/09 06:28:32;;;;;;;8.77;6.00;;;;;;;4.88;100.00;96508.34;5035890;28;20265;-91
2021/03/09 06:31:00;;;;;;;8.63;6.47;;;;;;;4.79;100.00;96519.47;5035371;28;20226;-90
2021/03/09 06:33:28;;;;;;;8.67;7.17;;;;;;;4.70;100.00;96523.59;5035162;28;20210;-91
2021/03/09 06:35:57;;;;;;;9.83;7.00;;;;;;;4.73;100.00;96526.78;5035159;28;20348;-91
2021/03/09 06:38:25;;;;;;;8.77;7.80;;;;;;;4.87;100.00;96525.75;5035102;28;20281;-91
2021/03/09 06:41:14;;;;;;;15.30;10.03;;;;;;;5.12;100.00;96527.28;5035053;28;20198;-91
2021/03/09 06:43:42;;;;;;;12.83;8.97;;;;;;;5.36;100.00;96536.75;5035358;28;20187;-91
2021/03/09 06:46:18;;;;;;;15.27;9.13;;;;;;;5.85;100.00;96540.72;5034945;28;20285;-91
2021/03/09 06:48:46;;;;;;;8.83;7.70;;;;;;;5.62;100.00;96538.16;5034901;28;20236;-91
2021/03/09 06:51:29;;;;;;;10.23;7.07;;;;;;;5.79;100.00;96542.03;5035045;28;20227;-91
2021/03/09 06:54:01;;;;;;;9.43;6.60;;;;;;;6.24;100.00;96538.50;5035237;28;20262;-90
2021/03/09 06:56:29;;;;;;;13.67;7.23;;;;;;;6.46;100.00;96541.00;5034949;28;20666;-91
2021/03/09 06:58:56;;;;;;;12.87;7.80;;;;;;;6.64;100.00;96542.06;5034821;28;20209;-91
2021/03/09 07:01:23;;;;;;;14.43;7.33;;;;;;;6.54;100.00;96545.56;5034987;28;20248;-91
2021/03/09 07:03:51;;;;;;;9.70;7.50;;;;;;;6.73;100.00;96553.56;5034721;28;20203;-92
2021/03/09 07:06:18;;;;;;;10.43;7.77;;;;;;;6.78;100.00;96545.31;5034882;28;20550;-91
2021/03/09 07:08:45;;;;;;;9.53;7.63;;;;;;;6.96;100.00;96542.94;5034597;28;20293;-91
2021/03/09 07:11:13;;;;;;;15.63;9.00;;;;;;;7.07;100.00;96546.31;5034643;28;20264;-91
2021/03/09 07:13:44;;;;;;;12.00;8.60;;;;;;;7.27;100.00;96544.59;5034410;28;20201;-91
2021/03/09 07:16:13;;;;;;;13.33;9.00;;;;;;;7.57;100.00;96535.91;5034744;28;20621;-92
2021/03/09 07:18:48;;;;;;;13.67;8.07;;;;;;;7.69;100.00;96536.66;5034452;28;20337;-92
2021/03/09 07:21:16;;;;;;;9.63;7.67;;;;;;;7.63;100.00;96543.22;5034560;28;20654;-91
2021/03/09 07:23:43;;;;;;;9.80;7.83;;;;;;;7.54;100.00;96543.19;5034380;28;20205;-91
2021/03/09 07:26:16;;;;;;;12.93;7.03;;;;;;;7.50;100.00;96547.03;5033994;28;20241;-91
2021/03/09 07:28:51;;;;;;;15.53;7.83;;;;;;;7.43;100.00;96546.75;5033633;28;20190;-91
2021/03/09 07:31:22;;;;;;;25.63;16.53;;;;;;;7.83;100.00;96544.13;5034354;28;20198;-92
2021/03/09 07:33:51;;;;;;;12.30;9.60;;;;;;;8.20;100.00;96546.06;5034056;28;20652;-92
2021/03/09 07:36:18;;;;;;;11.67;8.87;;;;;;;8.50;100.00;96542.53;5034331;28;20198;-92
2021/03/09 07:38:46;;;;;;;16.93;12.30;;;;;;;8.52;100.00;96551.09;5034120;28;20241;-91
2021/03/09 07:41:14;;;;;;;11.30;8.33;;;;;;;8.65;100.00;96549.97;5033860;28;20202;-92
2021/03/09 07:43:41;;;;;;;11.10;7.40;;;;;;;8.66;100.00;96541.97;5033782;28;20663;-91
2021/03/09 07:46:11;;;;;;;7.80;7.00;;;;;;;8.92;100.00;96549.25;5034353;28;20210;-91
2021/03/09 07:48:38;;;;;;;9.40;7.90;;;;;;;9.13;100.00;96536.75;5034028;28;20197;-92
2021/03/09 07:51:06;;;;;;;14.03;10.20;;;;;;;9.10;100.00;96533.59;5033667;28;20226;-91
2021/03/09 07:53:33;;;;;;;15.90;9.47;;;;;;;9.34;100.00;96533.09;5033970;28;20636;-91
2021/03/09 07:56:18;;;;;;;13.30;9.43;;;;;;;9.09;100.00;96529.31;5033972;28;20581;-91
2021/03/09 07:58:45;;;;;;;8.77;7.77;;;;;;;8.74;100.00;96534.22;5033957;28;20613;-92
2021/03/09 08:01:13;;;;;;;10.57;8.23;;;;;;;8.67;100.00;96532.31;5033857;28;20568;-91
2021/03/09 08:03:41;;;;;;;9.73;7.80;;;;;;;8.84;100.00;96534.22;5033496;28;20195;-91
2021/03/09 08:06:10;;;;;;;9.63;8.23;;;;;;;8.69;100.00;96541.66;5033809;28;20690;-91
2021/03/09 08:08:41;;;;;;;9.97;6.80;;;;;;;8.89;100.00;96531.16;5033818;28;20210;-92
2021/03/09 08:11:09;;;;;;;9.47;7.47;;;;;;;9.09;100.00;96531.94;5033477;28;20713;-92
2021/03/09 08:13:36;;;;;;;8.77;7.27;;;;;;;9.23;100.00;96529.69;5033385;28;20195;-92
2021/03/09 08:16:32;;;;;;;9.87;7.07;;;;;;;9.85;100.00;96518.63;5033195;28;20194;-91
2021/03/09 08:19:07;;;;;;;13.47;9.83;;;;;;;10.39;100.00;96520.34;5033291;28;20191;-92
2021/03/09 08:22:04;;;;;;;10.40;8.73;;;;;;;10.36;100.00;96527.69;5033648;28;20658;-92
2021/03/09 08:24:53;;;;;;;11.07;8.23;;;;;;;10.11;100.00;96530.03;5033244;28;20191;-92
2021/03/09 08:27:40;;;;;;;23.03;16.07;;;;;;;10.40;100.00;96529.84;5032909;28;20321;-92
2021/03/09 08:30:29;;;;;;;10.60;7.40;;;;;;;9.84;100.00;96535.34;5033148;28;20206;-92
2021/03/09 08:33:28;;;;;;;14.57;10.80;;;;;;;10.09;100.00;96534.63;5022804;28;20241;-91
2021/03/09 08:35:56;;;;;;;8.33;7.23;;;;;;;10.39;100.00;96537.88;5033259;28;20205;-91
2021/03/09 08:38:24;;;;;;;12.27;8.97;;;;;;;10.40;100.00;96529.84;5033153;28;20202;-91
2021/03/09 08:41:09;;;;;;;17.63;13.17;;;;;;;10.67;100.00;96528.94;5033005;28;20191;-91
2021/03/09 08:43:41;;;;;;;8.73;7.23;;;;;;;10.19;100.00;96530.13;5033127;28;20261;-90
2021/03/09 08:46:10;;;;;;;10.10;7.70;;;;;;;10.19;100.00;96537.19;5032995;28;20244;-92
2021/03/09 08:48:45;;;;;;;8.97;7.63;;;;;;;10.22;100.00;96531.63;5032875;28;20213;-91
2021/03/09 08:51:47;;;;;;;6.77;6.07;;;;;;;10.31;100.00;96537.81;5032986;28;20303;-90
2021/03/09 08:54:39;;;;;;;9.00;6.20;;;;;;;10.55;100.00;96539.81;5032860;28;20269;-91
2021/03/09 08:57:12;;;;;;;8.67;6.47;;;;;;;10.64;100.00;96545.00;5033106;28;20190;-90
2021/03/09 08:59:40;;;;;;;12.80;7.00;;;;;;;10.80;100.00;96531.16;5032824;28;20233;-91
2021/03/09 09:02:17;;;;;;;6.90;5.17;;;;;;;10.75;100.00;96538.69;5033191;28;20195;-91
2021/03/09 09:04:46;;;;;;;8.37;6.53;;;;;;;10.54;100.00;96541.63;5032835;28;20755;-91
2021/03/09 09:07:25;;;;;;;7.37;6.37;;;;;;;10.57;100.00;96546.59;5032591;28;20745;-91
2021/03/09 09:09:56;;;;;;;6.77;5.23;;;;;;;10.44;100.00;96536.44;5032850;28;20240;-91
2021/03/09 09:12:33;;;;;;;12.27;8.23;;;;;;;10.55;100.00;96537.19;5032670;28;20644;-92
2021/03/09 09:15:25;;;;;;;8.17;6.47;;;;;;;10.58;100.00;96531.66;5032640;28;20205;-91
2021/03/09 09:17:54;;;;;;;10.90;6.10;;;;;;;10.56;100.00;96533.59;5032575;28;20191;-91
2021/03/09 09:20:30;;;;;;;6.93;5.57;;;;;;;10.93;100.00;96536.00;5032548;28;20190;-91
2021/03/09 09:23:07;;;;;;;7.60;6.80;;;;;;;10.88;100.00;96541.75;5032658;28;20188;-90
2021/03/09 09:25:36;;;;;;;12.23;6.53;;;;;;;11.05;100.00;96540.03;5034916;28;20182;-90
2021/03/09 09:28:05;;;;;;;8.97;6.90;;;;;;;10.73;100.00;96538.00;5037046;28;20253;-91
2021/03/09 09:30:38;;;;;;;8.37;5.70;;;;;;;10.69;100.00;96531.41;5036322;28;20226;-91
2021/03/09 09:33:06;;;;;;;8.10;6.33;;;;;;;10.77;100.00;96522.75;5036350;28;20690;-91
2021/03/09 09:35:33;;;;;;;7.43;6.20;;;;;;;10.63;100.00;96527.59;5036318;28;20198;-92
2021/03/09 09:38:02;;;;;;;9.00;6.80;;;;;;;10.44;100.00;96533.81;5036235;28;20198;-91
2021/03/09 09:40:31;;;;;;;9.87;7.67;;;;;;;10.70;100.00;96533.88;5036138;28;20702;-92
2021/03/09 09:43:05;;;;;;;9.50;6.60;;;;;;;10.58;100.00;96529.84;5036160;28;20671;-91
2021/03/09 09:45:40;;;;;;;9.83;6.20;;;;;;;10.74;100.00;96521.25;5036167;28;20274;-91
2021/03/09 09:48:11;;;;;;;11.23;8.27;;;;;;;10.43;100.00;96528.72;5036074;28;20656;-91
2021/03/09 09:50:43;;;;;;;9.87;7.63;;;;;;;10.37;100.00;96538.03;5036337;28;20202;-91
2021/03/09 09:53:10;;;;;;;15.63;8.47;;;;;;;10.41;100.00;96531.50;5036438;28;20274;-89
2021/03/09 09:55:37;;;;;;;11.50;7.63;;;;;;;10.26;100.00;96526.94;5035906;28;20203;-91
2021/03/09 09:58:05;;;;;;;10.07;8.03;;;;;;;10.30;100.00;96526.47;5035911;28;20206;-91
2021/03/09 10:00:33;;;;;;;12.43;8.90;;;;;;;10.53;100.00;96521.59;5035878;28;20199;-92
2021/03/09 10:03:11;;;;;;;16.00;10.27;;;;;;;10.77;100.00;96525.38;5036095;28;20209;-90
2021/03/09 10:05:39;;;;;;;11.50;8.90;;;;;;;10.69;100.00;96528.75;5036069;28;20179;-90
2021/03/09 10:08:06;;;;;;;19.00;11.70;;;;;;;11.00;100.00;96528.31;5035818;28;20623;-91
2021/03/09 10:10:34;;;;;;;10.17;8.33;;;;;;;11.04;100.00;96535.75;5035836;28;20714;-91
2021/03/09 10:13:01;;;;;;;11.93;7.93;;;;;;;11.11;100.00;96539.41;5035723;28;20213;-92
2021/03/09 10:15:47;;;;;;;9.20;7.63;;;;;;;11.06;100.00;96523.28;5035950;28;20582;-91
2021/03/09 10:18:23;;;;;;;15.90;10.27;;;;;;;10.71;100.00;96521.56;5035801;28;20218;-91
2021/03/09 10:21:10;;;;;;;15.53;10.90;;;;;;;10.59;100.00;96528.03;5036165;28;20183;-91
2021/03/09 10:23:54;;;;;;;11.67;8.97;;;;;;;10.70;100.00;96544.41;5037199;28;20190;-91
2021/03/09 10:26:35;;;;;;;13.80;8.13;;;;;;;10.75;100.00;96543.94;5036131;28;20234;-91
2021/03/09 10:29:04;;;;;;;13.83;9.63;;;;;;;10.57;100.00;96541.34;5035079;28;20689;-92
2021/03/09 10:31:46;;;;;;;11.43;8.33;;;;;;;10.61;100.00;96542.69;5035071;28;20222;-90
2021/03/09 10:34:14;;;;;;;8.97;7.23;;;;;;;10.35;100.00;96534.72;5035458;28;20202;-91
2021/03/09 10:36:53;;;;;;;15.10;8.57;;;;;;;10.47;100.00;96530.06;5034966;28;20221;-90
2021/03/09 10:39:21;;;;;;;11.67;7.50;;;;;;;10.16;100.00;96533.06;5035426;28;20202;-91
2021/03/09 10:41:48;;;;;;;15.70;9.27;;;;;;;10.39;100.00;96528.22;5035261;28;20195;-90
2021/03/09 10:44:34;;;;;;;10.53;7.70;;;;;;;10.78;100.00;96524.41;5035361;28;20203;-91
2021/03/09 10:47:04;;;;;;;12.60;8.43;;;;;;;10.69;100.00;96521.69;5035319;28;20190;-91
2021/03/09 10:49:32;;;;;;;18.70;8.53;;;;;;;10.91;100.00;96511.66;5035162;28;20203;-91
2021/03/09 10:52:01;;;;;;;9.53;7.53;;;;;;;11.17;100.00;96516.91;5034811;28;20280;-91
2021/03/09 10:54:28;;;;;;;9.70;8.10;;;;;;;11.08;100.00;96505.50;5034862;28;20198;-91
2021/03/09 10:56:55;;;;;;;13.93;9.57;;;;;;;11.49;100.00;96508.34;5035140;28;20290;-92
2021/03/09 10:59:22;;;;;;;16.60;11.07;;;;;;;11.70;100.00;96507.13;5034878;28;20205;-91
2021/03/09 11:01:49;;;;;;;14.10;9.73;;;;;;;11.72;100.00;96503.34;5035099;28;20590;-92
2021/03/09 11:04:17;;;;;;;11.63;7.77;;;;;;;11.17;100.00;96494.06;5034622;28;20194;-90
2021/03/09 11:06:44;;;;;;;15.13;8.73;;;;;;;11.50;100.00;96496.00;5034737;28;20233;-92
2021/03/09 11:09:11;;;;;;;10.20;7.20;;;;;;;11.31;100.00;96495.28;5034783;28;20202;-91
2021/03/09 11:11:38;;;;;;;12.77;7.93;;;;;;;11.65;100.00;96484.72;5034522;28;20262;-91
2021/03/09 11:14:05;;;;;;;14.67;12.10;;;;;;;11.77;100.00;96481.78;5034813;28;20633;-92
2021/03/09 11:16:31;;;;;;;16.33;12.87;;;;;;;11.65;100.00;96484.72;5034758;28;20198;-92
2021/03/09 11:18:59;;;;;;;13.37;10.33;;;;;;;11.28;100.00;96492.16;5034167;28;20260;-91
2021/03/09 11:21:27;;;;;;;14.67;11.10;;;;;;;11.23;100.00;96492.63;5034588;28;20203;-91
2021/03/09 11:23:54;;;;;;;15.37;11.50;;;;;;;11.02;100.00;96487.75;5034317;28;20201;-91
2021/03/09 11:26:22;;;;;;;14.60;10.00;;;;;;;11.08;100.00;96481.84;5033957;28;20266;-90
2021/03/09 11:28:50;;;;;;;12.63;9.93;;;;;;;11.07;100.00;96484.63;5034535;28;20616;-91
2021/03/09 11:31:18;;;;;;;11.60;9.30;;;;;;;10.90;100.00;96499.50;5034172;28;20226;-91
2021/03/09 11:33:45;;;;;;;12.07;9.33;;;;;;;10.44;100.00;96490.97;5034683;28;20203;-91
2021/03/09 11:36:12;;;;;;;14.40;9.93;;;;;;;10.32;100.00;96476.41;5034122;28;20199;-90
2021/03/09 11:38:41;;;;;;;15.60;9.87;;;;;;;10.44;100.00;96477.81;5034352;28;20629;-91
2021/03/09 11:41:08;;;;;;;11.07;7.87;;;;;;;10.33;100.00;96467.56;5034215;28;20241;-91
2021/03/09 11:43:35;;;;;;;9.13;8.13;;;;;;;10.28;100.00;96473.25;5034257;28;20191;-91